createdAt,value
2023-05-14T00:00:05.961Z,217
2023-05-14T00:00:35.622Z,217
2023-05-14T00:01:07.681Z,217
2023-05-14T00:01:39.829Z,217
2023-05-14T00:02:11.656Z,216
2023-05-14T00:02:44.636Z,216
2023-05-14T00:03:15.872Z,216
2023-05-14T00:03:48.893Z,216
2023-05-14T00:04:19.850Z,216
2023-05-14T00:04:52.545Z,216
2023-05-14T00:05:24.076Z,216
2023-05-14T00:05:56.262Z,216
2023-05-14T00:06:27.741Z,216
2023-05-14T00:07:00.853Z,216
2023-05-14T00:07:32.017Z,216
2023-05-14T00:08:04.682Z,169
2023-05-14T00:08:35.819Z,171
2023-05-14T00:09:08.528Z,171
2023-05-14T00:09:39.807Z,170
2023-05-14T00:10:12.690Z,169
2023-05-14T00:10:43.782Z,168
2023-05-14T00:11:16.897Z,168
2023-05-14T00:11:47.638Z,168
2023-05-14T00:12:20.323Z,168
2023-05-14T00:12:51.805Z,168
2023-05-14T00:13:24.571Z,168
2023-05-14T00:13:55.749Z,168
2023-05-14T00:14:28.619Z,168
2023-05-14T00:14:59.739Z,168
2023-05-14T00:15:34.650Z,148
2023-05-14T00:16:03.854Z,148
2023-05-14T00:16:36.627Z,147
2023-05-14T00:17:07.691Z,147
2023-05-14T00:17:40.730Z,148
2023-05-14T00:18:11.706Z,148
2023-05-14T00:18:44.562Z,148
2023-05-14T00:19:15.844Z,148
2023-05-14T00:19:31.909Z,148
2023-05-14T00:20:04.123Z,148
2023-05-14T00:20:35.686Z,148
2023-05-14T00:21:07.805Z,148
2023-05-14T00:21:39.778Z,148
2023-05-14T00:22:12.541Z,148
2023-05-14T00:22:43.846Z,148
2023-05-14T00:23:16.779Z,148
2023-05-14T00:23:47.668Z,148
2023-05-14T00:24:20.524Z,148
2023-05-14T00:24:51.778Z,148
2023-05-14T00:25:25.058Z,194
2023-05-14T00:25:55.718Z,193
2023-05-14T00:26:28.584Z,193
2023-05-14T00:26:59.691Z,193
2023-05-14T00:27:32.526Z,193
2023-05-14T00:28:03.789Z,198
2023-05-14T00:28:36.528Z,197
2023-05-14T00:29:07.730Z,197
2023-05-14T00:29:40.489Z,198
2023-05-14T00:30:12.740Z,198
2023-05-14T00:30:44.605Z,198
2023-05-14T00:31:15.892Z,198
2023-05-14T00:31:48.500Z,198
2023-05-14T00:32:19.901Z,198
2023-05-14T00:32:52.548Z,198
2023-05-14T00:33:23.784Z,198
2023-05-14T00:33:56.543Z,198
2023-05-14T00:34:27.734Z,198
2023-05-14T00:35:00.915Z,198
2023-05-14T00:35:31.944Z,262
2023-05-14T00:36:04.689Z,262
2023-05-14T00:36:35.772Z,262
2023-05-14T00:37:08.632Z,263
2023-05-14T00:37:39.840Z,262
2023-05-14T00:38:12.444Z,262
2023-05-14T00:38:43.842Z,262
2023-05-14T00:39:16.688Z,262
2023-05-14T00:39:47.581Z,262
2023-05-14T00:40:20.908Z,262
2023-05-14T00:40:51.952Z,262
2023-05-14T00:41:24.861Z,262
2023-05-14T00:41:55.810Z,262
2023-05-14T00:42:28.724Z,262
2023-05-14T00:42:59.815Z,262
2023-05-14T00:43:32.553Z,262
2023-05-14T00:44:03.724Z,262
2023-05-14T00:44:36.560Z,262
2023-05-14T00:45:08.958Z,262
2023-05-14T00:45:40.776Z,262
2023-05-14T00:46:11.715Z,210
2023-05-14T00:46:45.697Z,252
2023-05-14T00:47:15.707Z,252
2023-05-14T00:47:48.921Z,252
2023-05-14T00:48:19.905Z,252
2023-05-14T00:48:52.607Z,255
2023-05-14T00:49:23.699Z,254
2023-05-14T00:49:56.769Z,254
2023-05-14T00:50:28.107Z,254
2023-05-14T00:51:00.479Z,254
2023-05-14T00:51:31.872Z,254
2023-05-14T00:52:04.733Z,254
2023-05-14T00:52:35.822Z,255
2023-05-14T00:53:08.425Z,258
2023-05-14T00:53:39.761Z,261
2023-05-14T00:54:12.641Z,261
2023-05-14T00:54:43.697Z,261
2023-05-14T00:55:16.867Z,261
2023-05-14T00:55:47.849Z,261
2023-05-14T00:56:20.648Z,261
2023-05-14T00:56:51.706Z,261
2023-05-14T00:57:24.655Z,261
2023-05-14T00:57:55.890Z,263
2023-05-14T00:58:28.489Z,263
2023-05-14T00:58:59.732Z,263
2023-05-14T00:59:32.496Z,263
2023-05-14T01:00:05.403Z,263
2023-05-14T01:00:37.543Z,263
2023-05-14T01:01:07.892Z,263
2023-05-14T01:01:40.958Z,263
2023-05-14T01:02:11.742Z,263
2023-05-14T01:02:44.860Z,263
2023-05-14T01:03:16.187Z,263
2023-05-14T01:03:48.838Z,263
2023-05-14T01:04:19.734Z,263
2023-05-14T01:04:52.637Z,263
2023-05-14T01:05:24.048Z,263
2023-05-14T01:05:56.492Z,263
2023-05-14T01:06:27.686Z,263
2023-05-14T01:07:00.735Z,263
2023-05-14T01:07:31.699Z,263
2023-05-14T01:08:04.708Z,263
2023-05-14T01:08:35.694Z,263
2023-05-14T01:09:08.627Z,263
2023-05-14T01:09:39.777Z,263
2023-05-14T01:10:12.817Z,263
2023-05-14T01:10:43.823Z,263
2023-05-14T01:11:16.456Z,263
2023-05-14T01:11:47.673Z,263
2023-05-14T01:12:20.503Z,263
2023-05-14T01:12:51.812Z,263
2023-05-14T01:13:24.374Z,263
2023-05-14T01:13:55.805Z,263
2023-05-14T01:14:28.523Z,263
2023-05-14T01:14:59.746Z,263
2023-05-14T01:15:33.833Z,264
2023-05-14T01:16:03.859Z,263
2023-05-14T01:16:36.771Z,263
2023-05-14T01:17:07.700Z,263
2023-05-14T01:17:40.658Z,263
2023-05-14T01:18:11.845Z,263
2023-05-14T01:18:44.489Z,263
2023-05-14T01:19:15.878Z,263
2023-05-14T01:19:48.547Z,263
2023-05-14T01:20:20.216Z,263
2023-05-14T01:20:52.508Z,263
2023-05-14T01:21:23.757Z,263
2023-05-14T01:21:56.768Z,263
2023-05-14T01:22:27.842Z,263
2023-05-14T01:23:00.671Z,263
2023-05-14T01:23:32.059Z,263
2023-05-14T01:24:04.776Z,263
2023-05-14T01:24:35.790Z,263
2023-05-14T01:25:08.779Z,263
2023-05-14T01:25:39.918Z,263
2023-05-14T01:26:12.553Z,263
2023-05-14T01:26:43.895Z,263
2023-05-14T01:27:16.562Z,263
2023-05-14T01:27:47.844Z,263
2023-05-14T01:28:20.435Z,263
2023-05-14T01:28:51.789Z,263
2023-05-14T01:29:24.522Z,263
2023-05-14T01:29:55.880Z,263
2023-05-14T01:30:29.796Z,263
2023-05-14T01:30:59.875Z,263
2023-05-14T01:31:32.488Z,263
2023-05-14T01:32:03.865Z,263
2023-05-14T01:32:37.463Z,263
2023-05-14T01:33:07.920Z,263
2023-05-14T01:33:40.537Z,263
2023-05-14T01:34:11.778Z,263
2023-05-14T01:34:44.799Z,263
2023-05-14T01:35:16.090Z,263
2023-05-14T01:35:48.598Z,263
2023-05-14T01:36:20.082Z,263
2023-05-14T01:36:52.798Z,263
2023-05-14T01:37:23.788Z,263
2023-05-14T01:37:56.570Z,263
2023-05-14T01:38:27.818Z,263
2023-05-14T01:39:00.542Z,263
2023-05-14T01:39:31.906Z,177
2023-05-14T01:40:04.898Z,177
2023-05-14T01:40:35.823Z,177
2023-05-14T01:41:08.600Z,177
2023-05-14T01:41:39.847Z,177
2023-05-14T01:42:12.864Z,177
2023-05-14T01:42:43.744Z,177
2023-05-14T01:43:16.635Z,177
2023-05-14T01:43:47.783Z,177
2023-05-14T01:44:20.620Z,177
2023-05-14T01:44:51.806Z,177
2023-05-14T01:45:25.640Z,184
2023-05-14T01:45:56.059Z,184
2023-05-14T01:46:28.580Z,184
2023-05-14T01:46:59.738Z,184
2023-05-14T01:47:32.646Z,184
2023-05-14T01:48:04.013Z,184
2023-05-14T01:48:36.541Z,184
2023-05-14T01:49:07.835Z,184
2023-05-14T01:49:40.741Z,184
2023-05-14T01:50:11.986Z,184
2023-05-14T01:50:44.633Z,184
2023-05-14T01:51:15.851Z,184
2023-05-14T01:51:48.757Z,184
2023-05-14T01:52:19.793Z,184
2023-05-14T01:52:52.564Z,184
2023-05-14T01:53:23.895Z,184
2023-05-14T01:53:56.496Z,184
2023-05-14T01:54:27.848Z,184
2023-05-14T01:55:01.115Z,184
2023-05-14T01:55:31.961Z,184
2023-05-14T01:56:04.578Z,184
2023-05-14T01:56:35.742Z,184
2023-05-14T01:57:08.775Z,184
2023-05-14T01:57:39.728Z,184
2023-05-14T01:58:12.654Z,184
2023-05-14T01:58:43.843Z,184
2023-05-14T01:59:16.634Z,184
2023-05-14T01:59:47.752Z,184
2023-05-14T02:00:05.439Z,184
2023-05-14T02:00:35.856Z,184
2023-05-14T02:01:07.866Z,184
2023-05-14T02:01:39.909Z,184
2023-05-14T02:02:11.621Z,184
2023-05-14T02:02:44.739Z,184
2023-05-14T02:03:15.873Z,184
2023-05-14T02:03:48.570Z,184
2023-05-14T02:04:19.861Z,184
2023-05-14T02:04:52.648Z,184
2023-05-14T02:05:24.128Z,184
2023-05-14T02:05:56.483Z,184
2023-05-14T02:06:27.707Z,184
2023-05-14T02:07:00.626Z,184
2023-05-14T02:07:31.963Z,184
2023-05-14T02:08:04.672Z,184
2023-05-14T02:08:35.690Z,184
2023-05-14T02:09:08.678Z,184
2023-05-14T02:09:39.833Z,184
2023-05-14T02:10:12.909Z,184
2023-05-14T02:10:43.897Z,184
2023-05-14T02:11:16.541Z,184
2023-05-14T02:11:47.747Z,184
2023-05-14T02:12:20.818Z,184
2023-05-14T02:12:51.793Z,184
2023-05-14T02:13:24.588Z,184
2023-05-14T02:13:55.897Z,184
2023-05-14T02:14:28.622Z,184
2023-05-14T02:14:59.653Z,184
2023-05-14T02:15:33.769Z,185
2023-05-14T02:16:03.884Z,184
2023-05-14T02:16:36.477Z,184
2023-05-14T02:17:07.777Z,184
2023-05-14T02:17:41.685Z,184
2023-05-14T02:18:11.898Z,184
2023-05-14T02:18:44.625Z,184
2023-05-14T02:19:15.814Z,184
2023-05-14T02:19:48.676Z,184
2023-05-14T02:20:19.977Z,184
2023-05-14T02:20:52.523Z,184
2023-05-14T02:21:23.812Z,184
2023-05-14T02:21:56.710Z,184
2023-05-14T02:22:27.713Z,184
2023-05-14T02:23:00.638Z,322
2023-05-14T02:23:41.059Z,320
2023-05-14T02:24:04.594Z,320
2023-05-14T02:24:35.747Z,346
2023-05-14T02:25:08.866Z,322
2023-05-14T02:25:39.981Z,326
2023-05-14T02:26:12.443Z,326
2023-05-14T02:26:43.867Z,322
2023-05-14T02:27:16.603Z,322
2023-05-14T02:27:47.702Z,326
2023-05-14T02:28:20.611Z,326
2023-05-14T02:28:51.949Z,299
2023-05-14T02:29:24.701Z,299
2023-05-14T02:29:55.736Z,299
2023-05-14T02:30:29.647Z,299
2023-05-14T02:30:59.962Z,299
2023-05-14T02:31:32.726Z,293
2023-05-14T02:32:03.853Z,293
2023-05-14T02:32:36.817Z,293
2023-05-14T02:33:07.896Z,293
2023-05-14T02:33:40.453Z,293
2023-05-14T02:34:11.879Z,293
2023-05-14T02:34:44.608Z,293
2023-05-14T02:35:16.089Z,293
2023-05-14T02:35:31.909Z,293
2023-05-14T02:36:03.993Z,293
2023-05-14T02:36:35.876Z,285
2023-05-14T02:37:07.912Z,285
2023-05-14T02:37:39.714Z,285
2023-05-14T02:38:12.796Z,285
2023-05-14T02:38:43.894Z,285
2023-05-14T02:39:16.804Z,285
2023-05-14T02:39:47.764Z,285
2023-05-14T02:40:20.885Z,285
2023-05-14T02:40:52.011Z,285
2023-05-14T02:41:24.387Z,285
2023-05-14T02:41:55.860Z,285
2023-05-14T02:42:28.505Z,285
2023-05-14T02:42:59.914Z,285
2023-05-14T02:43:32.635Z,285
2023-05-14T02:44:03.796Z,285
2023-05-14T02:44:36.698Z,285
2023-05-14T02:45:08.707Z,285
2023-05-14T02:45:41.776Z,285
2023-05-14T02:46:11.931Z,285
2023-05-14T02:46:44.735Z,286
2023-05-14T02:47:15.737Z,285
2023-05-14T02:47:48.609Z,285
2023-05-14T02:48:19.845Z,286
2023-05-14T02:48:52.517Z,285
2023-05-14T02:49:23.813Z,285
2023-05-14T02:49:56.579Z,285
2023-05-14T02:50:28.221Z,284
2023-05-14T02:51:00.557Z,284
2023-05-14T02:51:31.789Z,284
2023-05-14T02:52:04.587Z,284
2023-05-14T02:52:35.918Z,284
2023-05-14T02:53:08.550Z,284
2023-05-14T02:53:39.915Z,284
2023-05-14T02:54:12.689Z,284
2023-05-14T02:54:43.770Z,284
2023-05-14T02:55:16.932Z,273
2023-05-14T02:55:47.849Z,270
2023-05-14T02:56:20.462Z,269
2023-05-14T02:56:51.692Z,269
2023-05-14T02:57:24.594Z,268
2023-05-14T02:57:55.909Z,268
2023-05-14T02:58:28.705Z,268
2023-05-14T02:58:59.849Z,268
2023-05-14T02:59:32.657Z,268
2023-05-14T03:00:05.468Z,268
2023-05-14T03:00:36.689Z,268
2023-05-14T03:01:07.987Z,268
2023-05-14T03:01:40.754Z,268
2023-05-14T03:02:11.858Z,268
2023-05-14T03:02:44.778Z,249
2023-05-14T03:03:15.911Z,249
2023-05-14T03:03:48.502Z,249
2023-05-14T03:04:19.813Z,249
2023-05-14T03:04:52.566Z,249
2023-05-14T03:05:24.156Z,249
2023-05-14T03:05:56.490Z,249
2023-05-14T03:06:27.864Z,249
2023-05-14T03:07:00.681Z,249
2023-05-14T03:07:31.753Z,249
2023-05-14T03:08:04.649Z,249
2023-05-14T03:08:35.735Z,148
2023-05-14T03:09:08.771Z,146
2023-05-14T03:09:39.709Z,164
2023-05-14T03:10:12.743Z,164
2023-05-14T03:10:43.837Z,164
2023-05-14T03:11:16.436Z,164
2023-05-14T03:11:47.724Z,165
2023-05-14T03:12:20.854Z,165
2023-05-14T03:12:51.853Z,164
2023-05-14T03:13:24.726Z,164
2023-05-14T03:13:55.782Z,164
2023-05-14T03:14:28.651Z,157
2023-05-14T03:14:59.862Z,157
2023-05-14T03:15:33.994Z,157
2023-05-14T03:16:03.820Z,157
2023-05-14T03:16:36.795Z,157
2023-05-14T03:17:07.846Z,157
2023-05-14T03:17:40.925Z,166
2023-05-14T03:18:11.888Z,167
2023-05-14T03:18:45.124Z,167
2023-05-14T03:19:15.877Z,167
2023-05-14T03:19:48.654Z,167
2023-05-14T03:20:20.337Z,167
2023-05-14T03:20:52.585Z,167
2023-05-14T03:21:23.718Z,167
2023-05-14T03:21:56.737Z,167
2023-05-14T03:22:27.652Z,167
2023-05-14T03:23:00.685Z,167
2023-05-14T03:23:31.915Z,167
2023-05-14T03:24:04.755Z,167
2023-05-14T03:24:35.746Z,167
2023-05-14T03:25:08.829Z,167
2023-05-14T03:25:39.864Z,167
2023-05-14T03:26:27.852Z,167
2023-05-14T03:26:59.929Z,167
2023-05-14T03:27:31.786Z,167
2023-05-14T03:28:04.662Z,167
2023-05-14T03:28:35.906Z,167
2023-05-14T03:29:08.683Z,167
2023-05-14T03:29:39.815Z,167
2023-05-14T03:30:13.454Z,167
2023-05-14T03:30:44.013Z,167
2023-05-14T03:31:16.534Z,167
2023-05-14T03:31:47.822Z,167
2023-05-14T03:32:20.730Z,167
2023-05-14T03:32:51.716Z,181
2023-05-14T03:33:24.501Z,181
2023-05-14T03:33:56.017Z,181
2023-05-14T03:34:28.721Z,181
2023-05-14T03:34:59.775Z,181
2023-05-14T03:35:33.031Z,181
2023-05-14T03:36:04.001Z,181
2023-05-14T03:36:36.553Z,181
2023-05-14T03:37:07.781Z,181
2023-05-14T03:37:40.784Z,181
2023-05-14T03:38:11.940Z,181
2023-05-14T03:38:44.800Z,182
2023-05-14T03:39:15.821Z,181
2023-05-14T03:39:48.668Z,181
2023-05-14T03:40:20.068Z,181
2023-05-14T03:40:52.627Z,181
2023-05-14T03:41:23.940Z,181
2023-05-14T03:41:56.334Z,181
2023-05-14T03:42:27.822Z,181
2023-05-14T03:43:00.695Z,181
2023-05-14T03:43:32.093Z,181
2023-05-14T03:44:04.619Z,181
2023-05-14T03:44:36.013Z,181
2023-05-14T03:45:10.082Z,181
2023-05-14T03:45:40.049Z,181
2023-05-14T03:46:12.838Z,181
2023-05-14T03:46:44.054Z,181
2023-05-14T03:47:17.056Z,181
2023-05-14T03:47:47.985Z,266
2023-05-14T03:48:04.217Z,266
2023-05-14T03:48:35.984Z,267
2023-05-14T03:49:08.167Z,266
2023-05-14T03:49:40.082Z,266
2023-05-14T03:50:12.402Z,266
2023-05-14T03:50:44.773Z,266
2023-05-14T03:51:16.201Z,266
2023-05-14T03:51:48.824Z,266
2023-05-14T03:52:20.066Z,266
2023-05-14T03:52:52.940Z,266
2023-05-14T03:53:24.156Z,266
2023-05-14T03:53:56.795Z,266
2023-05-14T03:54:28.074Z,266
2023-05-14T03:55:01.092Z,266
2023-05-14T03:55:32.013Z,266
2023-05-14T03:56:05.397Z,266
2023-05-14T03:56:36.051Z,266
2023-05-14T03:57:09.129Z,266
2023-05-14T03:57:40.107Z,266
2023-05-14T03:58:12.901Z,266
2023-05-14T03:58:44.076Z,266
2023-05-14T03:59:18.029Z,266
2023-05-14T03:59:47.996Z,266
2023-05-14T04:00:05.716Z,266
2023-05-14T04:00:36.070Z,266
2023-05-14T04:01:08.112Z,266
2023-05-14T04:01:40.177Z,266
2023-05-14T04:02:12.087Z,266
2023-05-14T04:02:45.027Z,266
2023-05-14T04:03:16.162Z,266
2023-05-14T04:03:49.149Z,266
2023-05-14T04:04:20.195Z,266
2023-05-14T04:04:53.081Z,266
2023-05-14T04:05:24.471Z,266
2023-05-14T04:05:56.668Z,266
2023-05-14T04:06:28.060Z,266
2023-05-14T04:07:01.036Z,266
2023-05-14T04:07:32.307Z,266
2023-05-14T04:08:05.150Z,266
2023-05-14T04:08:36.211Z,266
2023-05-14T04:09:09.101Z,266
2023-05-14T04:09:40.058Z,266
2023-05-14T04:10:13.338Z,266
2023-05-14T04:10:44.289Z,266
2023-05-14T04:11:17.003Z,266
2023-05-14T04:11:48.098Z,266
2023-05-14T04:12:21.082Z,266
2023-05-14T04:12:52.229Z,266
2023-05-14T04:13:24.806Z,266
2023-05-14T04:13:56.229Z,266
2023-05-14T04:14:28.956Z,266
2023-05-14T04:15:00.195Z,266
2023-05-14T04:15:34.172Z,266
2023-05-14T04:16:04.128Z,266
2023-05-14T04:16:36.982Z,266
2023-05-14T04:17:08.064Z,266
2023-05-14T04:17:41.120Z,266
2023-05-14T04:18:12.237Z,266
2023-05-14T04:18:44.886Z,266
2023-05-14T04:19:16.212Z,266
2023-05-14T04:19:48.898Z,266
2023-05-14T04:20:20.526Z,266
2023-05-14T04:20:52.887Z,266
2023-05-14T04:21:24.134Z,266
2023-05-14T04:21:56.943Z,266
2023-05-14T04:22:28.068Z,266
2023-05-14T04:23:01.050Z,266
2023-05-14T04:23:32.182Z,266
2023-05-14T04:24:04.847Z,266
2023-05-14T04:24:36.059Z,266
2023-05-14T04:25:09.329Z,266
2023-05-14T04:25:40.159Z,266
2023-05-14T04:26:12.750Z,266
2023-05-14T04:26:44.065Z,266
2023-05-14T04:27:16.987Z,266
2023-05-14T04:27:48.237Z,266
2023-05-14T04:28:20.825Z,266
2023-05-14T04:28:52.102Z,266
2023-05-14T04:29:24.952Z,266
2023-05-14T04:29:56.097Z,266
2023-05-14T04:30:30.021Z,266
2023-05-14T04:31:00.336Z,266
2023-05-14T04:31:32.898Z,266
2023-05-14T04:32:04.300Z,266
2023-05-14T04:32:38.243Z,266
2023-05-14T04:33:08.010Z,266
2023-05-14T04:33:41.063Z,266
2023-05-14T04:34:12.167Z,266
2023-05-14T04:34:45.039Z,266
2023-05-14T04:35:16.298Z,266
2023-05-14T04:35:48.787Z,266
2023-05-14T04:36:20.388Z,266
2023-05-14T04:36:52.818Z,266
2023-05-14T04:37:24.177Z,266
2023-05-14T04:37:56.947Z,266
2023-05-14T04:38:28.210Z,266
2023-05-14T04:39:00.707Z,266
2023-05-14T04:39:32.083Z,266
2023-05-14T04:40:05.199Z,266
2023-05-14T04:40:35.961Z,266
2023-05-14T04:41:08.944Z,266
2023-05-14T04:41:40.170Z,266
2023-05-14T04:42:12.780Z,266
2023-05-14T04:42:44.005Z,266
2023-05-14T04:43:16.848Z,266
2023-05-14T04:43:48.252Z,267
2023-05-14T04:44:21.021Z,267
2023-05-14T04:44:52.175Z,267
2023-05-14T04:45:25.928Z,267
2023-05-14T04:45:56.244Z,267
2023-05-14T04:46:29.002Z,267
2023-05-14T04:47:00.138Z,267
2023-05-14T04:47:33.107Z,267
2023-05-14T04:48:04.162Z,267
2023-05-14T04:48:37.034Z,267
2023-05-14T04:49:08.191Z,267
2023-05-14T04:49:40.924Z,267
2023-05-14T04:50:12.426Z,267
2023-05-14T04:50:44.966Z,267
2023-05-14T04:51:15.965Z,267
2023-05-14T04:51:49.125Z,267
2023-05-14T04:52:20.179Z,17
2023-05-14T04:52:53.307Z,17
2023-05-14T04:53:24.214Z,1
2023-05-14T04:53:56.895Z,1
2023-05-14T04:54:28.243Z,8
2023-05-14T04:55:01.083Z,8
2023-05-14T04:55:32.084Z,8
2023-05-14T04:56:04.968Z,8
2023-05-14T04:56:36.167Z,8
2023-05-14T04:57:08.816Z,8
2023-05-14T04:57:40.162Z,8
2023-05-14T04:58:12.932Z,8
2023-05-14T04:58:44.022Z,358
2023-05-14T04:59:16.930Z,358
2023-05-14T04:59:48.211Z,23
2023-05-14T05:00:22.510Z,23
2023-05-14T05:00:52.061Z,23
2023-05-14T05:01:24.887Z,23
2023-05-14T05:01:55.996Z,17
2023-05-14T05:02:29.073Z,17
2023-05-14T05:03:00.389Z,17
2023-05-14T05:03:32.974Z,17
2023-05-14T05:04:04.109Z,17
2023-05-14T05:04:36.752Z,9
2023-05-14T05:05:08.351Z,17
2023-05-14T05:05:40.754Z,17
2023-05-14T05:06:11.842Z,17
2023-05-14T05:06:44.925Z,16
2023-05-14T05:07:16.042Z,16
2023-05-14T05:07:48.810Z,9
2023-05-14T05:08:20.238Z,9
2023-05-14T05:08:52.799Z,13
2023-05-14T05:09:24.138Z,13
2023-05-14T05:09:57.049Z,36
2023-05-14T05:10:28.309Z,8
2023-05-14T05:11:00.891Z,8
2023-05-14T05:11:32.215Z,8
2023-05-14T05:12:04.796Z,8
2023-05-14T05:12:36.152Z,8
2023-05-14T05:13:08.835Z,8
2023-05-14T05:13:40.268Z,8
2023-05-14T05:14:12.713Z,2
2023-05-14T05:14:44.093Z,8
2023-05-14T05:15:17.986Z,9
2023-05-14T05:15:48.175Z,8
2023-05-14T05:16:20.912Z,8
2023-05-14T05:16:52.127Z,2
2023-05-14T05:17:25.246Z,354
2023-05-14T05:17:56.195Z,354
2023-05-14T05:18:28.985Z,50
2023-05-14T05:19:00.246Z,50
2023-05-14T05:19:43.019Z,355
2023-05-14T05:20:04.565Z,355
2023-05-14T05:20:37.135Z,50
2023-05-14T05:21:08.110Z,50
2023-05-14T05:21:40.901Z,50
2023-05-14T05:22:12.231Z,2
2023-05-14T05:22:45.226Z,2
2023-05-14T05:23:16.157Z,2
2023-05-14T05:23:48.942Z,15
2023-05-14T05:24:20.168Z,353
2023-05-14T05:24:52.888Z,353
2023-05-14T05:25:24.436Z,33
2023-05-14T05:25:57.246Z,7
2023-05-14T05:26:28.084Z,348
2023-05-14T05:27:01.895Z,348
2023-05-14T05:27:32.331Z,20
2023-05-14T05:28:05.127Z,20
2023-05-14T05:28:36.263Z,348
2023-05-14T05:29:08.874Z,348
2023-05-14T05:29:40.219Z,20
2023-05-14T05:30:13.756Z,20
2023-05-14T05:30:44.281Z,7
2023-05-14T05:31:19.528Z,7
2023-05-14T05:31:48.075Z,20
2023-05-14T05:32:21.136Z,15
2023-05-14T05:32:52.238Z,15
2023-05-14T05:33:24.853Z,15
2023-05-14T05:33:56.244Z,25
2023-05-14T05:34:29.103Z,25
2023-05-14T05:35:00.495Z,25
2023-05-14T05:35:32.998Z,22
2023-05-14T05:36:04.341Z,25
2023-05-14T05:36:37.053Z,31
2023-05-14T05:37:08.215Z,31
2023-05-14T05:37:41.258Z,31
2023-05-14T05:38:12.443Z,31
2023-05-14T05:38:45.154Z,31
2023-05-14T05:39:16.464Z,36
2023-05-14T05:39:49.503Z,34
2023-05-14T05:40:20.666Z,34
2023-05-14T05:40:53.474Z,34
2023-05-14T05:41:24.577Z,34
2023-05-14T05:41:57.146Z,34
2023-05-14T05:42:28.520Z,31
2023-05-14T05:43:01.371Z,31
2023-05-14T05:43:32.504Z,33
2023-05-14T05:44:05.248Z,34
2023-05-14T05:44:36.569Z,37
2023-05-14T05:45:10.291Z,33
2023-05-14T05:45:40.669Z,33
2023-05-14T05:46:13.223Z,37
2023-05-14T05:46:44.479Z,44
2023-05-14T05:47:17.352Z,44
2023-05-14T05:47:48.534Z,44
2023-05-14T05:48:22.457Z,44
2023-05-14T05:48:52.493Z,44
2023-05-14T05:49:25.265Z,44
2023-05-14T05:49:56.695Z,37
2023-05-14T05:50:29.565Z,37
2023-05-14T05:51:00.549Z,13
2023-05-14T05:51:33.497Z,20
2023-05-14T05:52:04.666Z,20
2023-05-14T05:52:37.303Z,20
2023-05-14T05:53:08.492Z,20
2023-05-14T05:53:41.456Z,24
2023-05-14T05:54:12.449Z,24
2023-05-14T05:54:45.314Z,24
2023-05-14T05:55:16.951Z,21
2023-05-14T05:55:49.195Z,21
2023-05-14T05:56:20.418Z,28
2023-05-14T05:56:53.470Z,21
2023-05-14T05:57:26.361Z,21
2023-05-14T05:57:57.326Z,28
2023-05-14T05:58:28.536Z,23
2023-05-14T05:59:01.306Z,23
2023-05-14T05:59:32.400Z,27
2023-05-14T06:00:06.513Z,23
2023-05-14T06:00:36.409Z,23
2023-05-14T06:01:09.098Z,23
2023-05-14T06:01:40.556Z,23
2023-05-14T06:02:13.392Z,23
2023-05-14T06:02:44.782Z,23
2023-05-14T06:03:17.232Z,23
2023-05-14T06:03:48.858Z,23
2023-05-14T06:04:21.209Z,23
2023-05-14T06:04:52.402Z,23
2023-05-14T06:05:25.562Z,32
2023-05-14T06:05:56.541Z,32
2023-05-14T06:06:29.457Z,32
2023-05-14T06:07:00.489Z,32
2023-05-14T06:07:33.380Z,27
2023-05-14T06:08:04.815Z,31
2023-05-14T06:08:37.199Z,31
2023-05-14T06:09:08.464Z,53
2023-05-14T06:09:42.120Z,34
2023-05-14T06:10:12.672Z,34
2023-05-14T06:10:46.845Z,73
2023-05-14T06:11:16.507Z,34
2023-05-14T06:11:49.400Z,25
2023-05-14T06:12:20.488Z,31
2023-05-14T06:12:53.466Z,31
2023-05-14T06:13:24.590Z,31
2023-05-14T06:13:57.176Z,31
2023-05-14T06:14:28.635Z,31
2023-05-14T06:15:02.776Z,31
2023-05-14T06:15:32.553Z,31
2023-05-14T06:16:05.524Z,31
2023-05-14T06:16:36.621Z,31
2023-05-14T06:17:09.288Z,31
2023-05-14T06:17:40.469Z,31
2023-05-14T06:18:13.438Z,41
2023-05-14T06:18:44.555Z,41
2023-05-14T06:19:17.455Z,41
2023-05-14T06:19:48.452Z,41
2023-05-14T06:20:21.752Z,32
2023-05-14T06:20:52.373Z,32
2023-05-14T06:21:25.173Z,33
2023-05-14T06:21:56.405Z,41
2023-05-14T06:22:29.420Z,41
2023-05-14T06:23:00.680Z,41
2023-05-14T06:23:33.375Z,41
2023-05-14T06:24:04.702Z,41
2023-05-14T06:24:37.308Z,41
2023-05-14T06:25:08.671Z,42
2023-05-14T06:25:41.543Z,48
2023-05-14T06:26:12.529Z,42
2023-05-14T06:26:45.109Z,27
2023-05-14T06:27:16.527Z,27
2023-05-14T06:27:49.442Z,27
2023-05-14T06:28:20.445Z,27
2023-05-14T06:28:53.284Z,27
2023-05-14T06:29:24.552Z,27
2023-05-14T06:29:57.079Z,27
2023-05-14T06:30:29.660Z,53
2023-05-14T06:31:01.337Z,27
2023-05-14T06:31:32.502Z,15
2023-05-14T06:32:05.358Z,27
2023-05-14T06:32:36.512Z,71
2023-05-14T06:33:09.378Z,49
2023-05-14T06:33:40.387Z,37
2023-05-14T06:34:13.295Z,43
2023-05-14T06:34:44.606Z,43
2023-05-14T06:35:18.477Z,40
2023-05-14T06:35:48.575Z,40
2023-05-14T06:36:21.548Z,40
2023-05-14T06:36:52.432Z,40
2023-05-14T06:37:25.254Z,40
2023-05-14T06:37:56.582Z,40
2023-05-14T06:38:29.178Z,40
2023-05-14T06:39:00.458Z,40
2023-05-14T06:39:33.425Z,40
2023-05-14T06:40:04.776Z,40
2023-05-14T06:40:37.142Z,40
2023-05-14T06:41:08.482Z,40
2023-05-14T06:41:41.155Z,40
2023-05-14T06:42:12.594Z,40
2023-05-14T06:42:45.142Z,40
2023-05-14T06:43:16.274Z,40
2023-05-14T06:43:49.306Z,40
2023-05-14T06:44:20.613Z,40
2023-05-14T06:44:53.143Z,40
2023-05-14T06:45:25.424Z,40
2023-05-14T06:45:57.448Z,40
2023-05-14T06:46:28.508Z,40
2023-05-14T06:47:01.285Z,40
2023-05-14T06:47:32.682Z,40
2023-05-14T06:48:05.346Z,40
2023-05-14T06:48:36.433Z,39
2023-05-14T06:49:09.251Z,44
2023-05-14T06:49:40.610Z,44
2023-05-14T06:50:13.532Z,44
2023-05-14T06:50:44.528Z,39
2023-05-14T06:51:17.362Z,44
2023-05-14T06:51:48.414Z,29
2023-05-14T06:52:21.131Z,42
2023-05-14T06:52:52.444Z,42
2023-05-14T06:53:25.265Z,44
2023-05-14T06:53:56.471Z,42
2023-05-14T06:54:29.285Z,95
2023-05-14T06:55:01.002Z,36
2023-05-14T06:55:33.259Z,36
2023-05-14T06:56:04.497Z,70
2023-05-14T06:56:38.177Z,56
2023-05-14T06:57:08.676Z,56
2023-05-14T06:57:41.314Z,48
2023-05-14T06:58:12.538Z,60
2023-05-14T06:58:45.193Z,60
2023-05-14T06:59:16.477Z,60
2023-05-14T06:59:49.004Z,12
2023-05-14T07:00:22.212Z,27
2023-05-14T07:00:53.432Z,27
2023-05-14T07:01:24.555Z,27
2023-05-14T07:01:57.253Z,27
2023-05-14T07:02:28.498Z,60
2023-05-14T07:03:01.238Z,53
2023-05-14T07:03:32.541Z,46
2023-05-14T07:04:05.282Z,69
2023-05-14T07:04:36.613Z,69
2023-05-14T07:05:09.298Z,47
2023-05-14T07:05:40.563Z,65
2023-05-14T07:06:13.701Z,53
2023-05-14T07:06:44.472Z,65
2023-05-14T07:07:17.203Z,65
2023-05-14T07:07:48.571Z,65
2023-05-14T07:08:21.399Z,65
2023-05-14T07:08:52.459Z,45
2023-05-14T07:09:25.063Z,80
2023-05-14T07:09:56.725Z,80
2023-05-14T07:10:29.438Z,72
2023-05-14T07:11:00.478Z,80
2023-05-14T07:11:33.258Z,72
2023-05-14T07:12:04.604Z,45
2023-05-14T07:12:37.203Z,45
2023-05-14T07:13:08.528Z,41
2023-05-14T07:13:41.297Z,43
2023-05-14T07:14:12.384Z,43
2023-05-14T07:14:45.094Z,41
2023-05-14T07:15:17.326Z,43
2023-05-14T07:15:49.655Z,41
2023-05-14T07:16:20.400Z,48
2023-05-14T07:16:53.130Z,34
2023-05-14T07:17:24.644Z,34
2023-05-14T07:17:57.302Z,42
2023-05-14T07:18:28.563Z,42
2023-05-14T07:19:01.367Z,42
2023-05-14T07:19:32.571Z,32
2023-05-14T07:20:05.499Z,32
2023-05-14T07:20:36.432Z,34
2023-05-14T07:21:09.243Z,34
2023-05-14T07:21:40.451Z,34
2023-05-14T07:22:13.536Z,39
2023-05-14T07:22:44.452Z,357
2023-05-14T07:23:19.709Z,27
2023-05-14T07:23:48.396Z,27
2023-05-14T07:24:21.437Z,41
2023-05-14T07:24:52.643Z,41